Time;durP1;ratioP1;P1;durP2;ratioP2;P2;SDS_P1;SDS_P2;PMS_P1;PMS_P2;Temp;Humidity;BMP_temperature;BMP_pressure;BME280_temperature;BME280_humidity;BME280_pressure;Samples;Min_cycle;Max_cycle;Signal;HPM_P1;HPM_P2
2021/06/08 00:01:27;;;;;;;5.38;4.40;;;18.60;80.90;;;;;;5074165;28;20030;-68
2021/06/08 00:03:52;;;;;;;5.10;4.05;;;18.50;81.20;;;;;;5074255;28;20435;-68
2021/06/08 00:06:18;;;;;;;4.85;4.35;;;18.50;81.30;;;;;;5069423;28;20346;-68
2021/06/08 00:08:44;;;;;;;5.18;4.65;;;18.50;81.50;;;;;;5089617;28;20035;-68
2021/06/08 00:11:10;;;;;;;5.75;4.43;;;18.50;81.60;;;;;;5073967;28;20025;-68
2021/06/08 00:13:35;;;;;;;4.80;4.20;;;18.40;81.70;;;;;;5073882;28;20025;-68
2021/06/08 00:16:02;;;;;;;6.65;4.68;;;18.40;82.00;;;;;;5072866;28;20461;-68
2021/06/08 00:18:28;;;;;;;6.47;4.63;;;18.40;82.00;;;;;;5069105;28;20416;-68
2021/06/08 00:20:53;;;;;;;4.55;3.85;;;18.40;82.10;;;;;;5073950;28;20039;-68
2021/06/08 00:23:19;;;;;;;4.78;4.25;;;18.40;82.00;;;;;;5065965;28;20032;-68
2021/06/08 00:25:44;;;;;;;4.97;4.22;;;18.40;82.20;;;;;;5070149;28;20024;-68
2021/06/08 00:28:10;;;;;;;7.03;4.43;;;18.40;82.20;;;;;;5073594;28;20041;-68
2021/06/08 00:30:37;;;;;;;5.10;4.32;;;18.40;82.20;;;;;;5066735;28;20059;-68
2021/06/08 00:33:03;;;;;;;5.40;4.25;;;18.40;82.20;;;;;;5071574;28;20055;-68
2021/06/08 00:35:30;;;;;;;4.65;4.22;;;18.40;82.30;;;;;;5073619;28;20473;-68
2021/06/08 00:37:56;;;;;;;6.00;4.35;;;18.40;82.20;;;;;;5073480;28;20571;-68
2021/06/08 00:40:22;;;;;;;4.93;4.30;;;18.30;82.30;;;;;;5073555;28;20028;-68
2021/06/08 00:42:48;;;;;;;5.75;4.28;;;18.30;82.20;;;;;;5073479;28;20032;-68
2021/06/08 00:45:15;;;;;;;4.93;4.45;;;18.30;82.30;;;;;;5068420;28;20017;-68
2021/06/08 00:47:40;;;;;;;5.93;4.82;;;18.30;82.40;;;;;;5071737;28;20028;-68
2021/06/08 00:50:07;;;;;;;5.53;4.05;;;18.30;82.40;;;;;;5062991;28;20413;-68
2021/06/08 00:52:32;;;;;;;5.57;4.43;;;18.30;82.50;;;;;;5072985;28;20033;-68
2021/06/08 00:54:58;;;;;;;5.25;4.63;;;18.30;82.60;;;;;;5073578;28;20025;-68
2021/06/08 00:57:24;;;;;;;5.15;4.65;;;18.20;82.70;;;;;;5072688;28;20082;-68
2021/06/08 00:59:49;;;;;;;6.50;4.53;;;18.20;82.80;;;;;;5069667;28;20059;-68
2021/06/08 01:02:15;;;;;;;4.88;4.38;;;18.20;82.90;;;;;;5069770;28;20431;-68
2021/06/08 01:04:42;;;;;;;5.13;4.25;;;18.20;83.10;;;;;;5066049;28;20029;-68
2021/06/08 01:07:08;;;;;;;6.72;4.80;;;18.20;83.10;;;;;;5073151;28;20025;-68
2021/06/08 01:09:33;;;;;;;4.47;4.07;;;18.20;83.20;;;;;;5073091;28;20029;-68
2021/06/08 01:11:59;;;;;;;5.38;4.60;;;18.20;83.20;;;;;;5073064;28;20116;-68
2021/06/08 01:14:25;;;;;;;6.32;4.60;;;18.20;83.30;;;;;;5073092;28;20025;-68
2021/06/08 01:16:50;;;;;;;4.90;4.40;;;18.20;83.10;;;;;;5073308;28;20023;-68
2021/06/08 01:19:17;;;;;;;5.35;4.57;;;18.20;83.20;;;;;;5072618;28;20111;-68
2021/06/08 01:21:43;;;;;;;5.55;5.00;;;18.20;83.30;;;;;;5070312;28;20024;-68
2021/06/08 01:24:10;;;;;;;4.70;4.20;;;18.20;83.40;;;;;;5069467;28;20720;-68
2021/06/08 01:26:35;;;;;;;6.15;4.72;;;18.20;83.40;;;;;;5070047;28;20524;-68
2021/06/08 01:29:03;;;;;;;5.30;4.47;;;18.20;83.50;;;;;;5071647;28;20116;-68
2021/06/08 01:31:30;;;;;;;5.90;4.60;;;18.20;83.60;;;;;;5061380;28;20036;-68
2021/06/08 01:33:57;;;;;;;5.45;4.95;;;18.20;83.60;;;;;;5061612;28;20111;-68
2021/06/08 01:36:24;;;;;;;5.30;4.80;;;18.20;83.50;;;;;;5053112;28;20025;-68
2021/06/08 01:38:52;;;;;;;5.85;4.63;;;18.20;83.60;;;;;;5056861;28;20350;-68
2021/06/08 01:41:23;;;;;;;5.50;4.97;;;18.20;83.70;;;;;;5053001;28;20335;-68
2021/06/08 01:43:49;;;;;;;5.45;4.75;;;18.10;83.80;;;;;;5052923;28;20020;-68
2021/06/08 01:46:20;;;;;;;5.05;4.55;;;18.10;83.80;;;;;;5062081;28;20056;-68
2021/06/08 01:48:46;;;;;;;7.72;5.05;;;18.10;83.90;;;;;;5071929;28;20496;-68
2021/06/08 01:51:40;;;;;;;5.95;4.88;;;18.10;84.10;;;;;;5068654;28;20033;-68
2021/06/08 01:54:31;;;;;;;6.57;5.10;;;18.20;84.30;;;;;;5055535;28;20475;-68
2021/06/08 01:57:17;;;;;;;5.00;4.43;;;18.20;84.20;;;;;;5072822;28;20465;-68
2021/06/08 02:00:42;;;;;;;4.97;4.50;;;18.20;84.30;;;;;;5068585;28;20037;-68
2021/06/08 02:03:13;;;;;;;8.52;5.13;;;18.10;84.10;;;;;;5010962;28;20541;-68
2021/06/08 02:06:00;;;;;;;5.78;4.85;;;18.10;84.60;;;;;;5062952;28;20037;-68
2021/06/08 02:08:34;;;;;;;6.60;4.85;;;18.10;84.50;;;;;;5072543;28;20426;-68
2021/06/08 02:11:10;;;;;;;5.40;4.90;;;18.10;84.80;;;;;;5071608;28;20033;-68
2021/06/08 02:13:48;;;;;;;6.43;5.20;;;18.20;84.90;;;;;;5072691;28;20028;-68
2021/06/08 02:16:21;;;;;;;5.68;5.07;;;18.20;85.10;;;;;;5071861;28;20021;-68
2021/06/08 02:18:49;;;;;;;5.72;5.13;;;18.20;85.10;;;;;;5069216;28;20027;-68
2021/06/08 02:21:18;;;;;;;6.07;5.47;;;18.20;85.20;;;;;;5069755;28;20065;-68
2021/06/08 02:23:47;;;;;;;6.35;5.22;;;18.10;85.10;;;;;;5070158;28;20009;-68
2021/06/08 02:26:15;;;;;;;6.68;5.60;;;18.20;85.30;;;;;;5076032;28;20357;-68
2021/06/08 02:28:41;;;;;;;5.85;5.25;;;18.10;85.20;;;;;;5075810;28;20025;-68
2021/06/08 02:31:09;;;;;;;7.28;5.38;;;18.20;85.30;;;;;;5068414;28;20362;-68
2021/06/08 02:33:39;;;;;;;6.65;5.30;;;18.20;85.30;;;;;;5064744;28;20141;-68
2021/06/08 02:36:05;;;;;;;5.93;5.32;;;18.20;85.50;;;;;;5057928;28;20063;-68
2021/06/08 02:38:34;;;;;;;6.07;5.38;;;18.20;85.50;;;;;;5055754;28;20033;-68
2021/06/08 02:41:02;;;;;;;6.35;5.75;;;18.20;85.40;;;;;;5055689;28;20032;-68
2021/06/08 02:43:30;;;;;;;6.38;5.50;;;18.20;85.40;;;;;;5055706;28;20017;-68
2021/06/08 02:45:56;;;;;;;7.38;6.18;;;18.20;85.30;;;;;;5064488;28;20364;-68
2021/06/08 02:48:23;;;;;;;7.32;5.78;;;18.30;85.20;;;;;;5075045;28;20041;-68
2021/06/08 02:50:49;;;;;;;7.03;6.32;;;18.30;85.20;;;;;;5058947;28;20458;-68
2021/06/08 02:53:16;;;;;;;7.85;5.53;;;18.40;85.10;;;;;;5055655;28;20025;-68
2021/06/08 02:55:42;;;;;;;6.38;5.78;;;18.40;85.10;;;;;;5055531;28;20027;-68
2021/06/08 02:58:09;;;;;;;6.40;5.70;;;18.40;85.00;;;;;;5070459;28;20527;-68
2021/06/08 03:00:36;;;;;;;6.15;5.53;;;18.50;84.80;;;;;;5063745;28;20027;-69
2021/06/08 03:03:05;;;;;;;6.70;5.95;;;18.50;84.80;;;;;;5074367;28;20090;-69
2021/06/08 03:05:33;;;;;;;7.75;5.70;;;18.60;84.70;;;;;;5075127;28;20086;-69
2021/06/08 03:08:03;;;;;;;7.80;5.47;;;18.70;84.80;;;;;;5075231;28;20034;-69
2021/06/08 03:10:34;;;;;;;7.60;5.93;;;18.70;84.60;;;;;;5075160;28;20090;-69
2021/06/08 03:13:01;;;;;;;7.38;6.03;;;18.90;84.30;;;;;;5075294;28;20029;-68
2021/06/08 03:15:35;;;;;;;8.00;5.95;;;18.90;84.00;;;;;;5075224;28;20047;-68
2021/06/08 03:18:02;;;;;;;6.93;5.93;;;19.00;83.80;;;;;;5062221;28;20350;-68
2021/06/08 03:20:38;;;;;;;7.93;6.25;;;19.00;83.80;;;;;;5074490;28;20048;-68
2021/06/08 03:23:06;;;;;;;6.65;5.90;;;19.10;83.60;;;;;;5071145;28;20047;-68
2021/06/08 03:25:35;;;;;;;7.03;5.78;;;19.20;83.50;;;;;;5066152;28;20020;-68
2021/06/08 03:28:02;;;;;;;7.38;5.63;;;19.20;83.30;;;;;;5074892;28;20457;-68
2021/06/08 03:30:29;;;;;;;6.43;5.82;;;19.40;83.60;;;;;;5071101;28;20120;-69
2021/06/08 03:32:55;;;;;;;6.65;5.60;;;19.50;83.80;;;;;;5069351;28;20027;-69
2021/06/08 03:35:23;;;;;;;6.88;5.93;;;19.60;83.50;;;;;;5074804;28;20028;-69
2021/06/08 03:37:51;;;;;;;7.05;6.30;;;19.80;82.80;;;;;;5074612;28;20461;-69
2021/06/08 03:40:18;;;;;;;6.40;5.65;;;19.90;82.00;;;;;;5074711;28;20021;-69
2021/06/08 03:42:43;;;;;;;6.88;6.07;;;20.10;81.40;;;;;;5074571;28;20086;-69
2021/06/08 03:45:12;;;;;;;7.38;6.05;;;20.30;81.70;;;;;;5069509;28;20107;-69
2021/06/08 03:47:40;;;;;;;6.60;5.68;;;20.70;81.00;;;;;;5067141;28;20534;-69
2021/06/08 03:50:06;;;;;;;6.50;5.85;;;21.20;79.50;;;;;;5072751;28;20059;-69
2021/06/08 03:52:32;;;;;;;7.57;5.88;;;21.50;77.90;;;;;;5069847;28;20024;-69
2021/06/08 03:54:58;;;;;;;6.38;5.63;;;21.80;78.00;;;;;;5064971;28;20341;-69
2021/06/08 03:57:29;;;;;;;6.72;6.13;;;22.50;78.30;;;;;;5074480;28;20031;-69
2021/06/08 03:59:56;;;;;;;5.93;5.32;;;23.50;76.70;;;;;;5073952;28;20017;-69
2021/06/08 04:02:23;;;;;;;6.65;5.60;;;24.60;73.50;;;;;;5069919;28;20020;-69
2021/06/08 04:04:49;;;;;;;7.13;5.72;;;25.60;70.90;;;;;;5062115;28;20372;-69
2021/06/08 04:07:19;;;;;;;5.65;4.93;;;26.50;68.00;;;;;;5072940;28;20024;-69
2021/06/08 04:09:49;;;;;;;6.22;4.53;;;26.90;65.00;;;;;;5066646;28;20115;-69
2021/06/08 04:12:19;;;;;;;6.57;5.40;;;27.00;63.80;;;;;;5062986;28;20024;-69
2021/06/08 04:14:45;;;;;;;5.43;4.85;;;27.40;63.90;;;;;;5072727;28;20032;-69
2021/06/08 04:17:11;;;;;;;6.43;4.97;;;28.00;62.80;;;;;;5072185;28;20034;-69
2021/06/08 04:19:37;;;;;;;5.30;4.80;;;28.70;61.20;;;;;;5069309;28;20055;-69
2021/06/08 04:22:03;;;;;;;5.28;4.72;;;28.90;59.00;;;;;;5073890;28;20020;-69
2021/06/08 04:24:29;;;;;;;5.15;4.65;;;28.70;58.00;;;;;;5063713;28;20366;-69
2021/06/08 04:26:55;;;;;;;5.88;4.82;;;28.20;57.70;;;;;;5073932;28;20146;-69
2021/06/08 04:29:21;;;;;;;5.45;4.95;;;27.60;58.20;;;;;;5065916;28;20029;-69
2021/06/08 04:31:47;;;;;;;8.23;5.93;;;27.00;59.00;;;;;;5062060;28;20028;-69
2021/06/08 04:34:19;;;;;;;5.88;5.30;;;26.50;59.70;;;;;;5060852;28;20396;-69
2021/06/08 04:36:46;;;;;;;6.43;5.82;;;26.20;60.40;;;;;;5073968;28;20500;-69
2021/06/08 04:39:12;;;;;;;6.45;5.55;;;25.80;60.90;;;;;;5073860;28;20108;-69
2021/06/08 04:41:39;;;;;;;7.15;5.50;;;25.60;61.90;;;;;;5073604;28;20435;-69
2021/06/08 04:44:05;;;;;;;6.00;5.32;;;25.40;62.20;;;;;;5074052;28;20017;-69
2021/06/08 04:46:37;;;;;;;7.32;5.07;;;25.50;62.70;;;;;;5064460;28;20070;-69
2021/06/08 04:49:02;;;;;;;6.72;5.38;;;25.80;62.20;;;;;;5071244;28;20064;-69
2021/06/08 04:51:28;;;;;;;5.68;4.95;;;26.10;61.90;;;;;;5053798;28;20029;-69
2021/06/08 04:53:53;;;;;;;7.05;5.20;;;26.60;61.80;;;;;;5054322;28;20032;-69
2021/06/08 04:56:19;;;;;;;6.57;5.10;;;27.20;61.00;;;;;;5064097;28;20049;-69
2021/06/08 04:58:45;;;;;;;5.38;4.88;;;27.70;59.70;;;;;;5053357;28;20429;-69
2021/06/08 05:01:20;;;;;;;9.00;7.15;;;28.10;59.30;;;;;;5059907;28;20023;-69
2021/06/08 05:03:50;;;;;;;6.00;5.32;;;28.80;58.90;;;;;;5068909;28;20024;-55
2021/06/08 05:06:19;;;;;;;5.47;4.80;;;29.40;57.70;;;;;;5073107;28;20025;-55
2021/06/08 05:08:56;;;;;;;4.88;4.30;;;30.10;57.10;;;;;;5072231;28;20040;-53
2021/06/08 05:11:38;;;;;;;5.00;4.50;;;30.90;56.00;;;;;;5069677;28;20032;-55
2021/06/08 05:14:07;;;;;;;5.90;4.45;;;31.50;55.00;;;;;;5071794;28;20115;-56
2021/06/08 05:16:32;;;;;;;4.75;4.20;;;32.10;53.60;;;;;;5062731;28;20484;-53
2021/06/08 05:19:01;;;;;;;6.03;4.07;;;32.40;52.40;;;;;;5072502;28;20119;-56
2021/06/08 05:21:28;;;;;;;5.80;4.32;;;32.40;51.30;;;;;;5072875;28;20512;-54
2021/06/08 05:23:54;;;;;;;6.28;4.40;;;32.10;51.00;;;;;;5067872;28;20028;-55
2021/06/08 05:26:21;;;;;;;4.70;4.20;;;31.40;51.20;;;;;;5068984;28;20047;-56
2021/06/08 05:28:47;;;;;;;4.93;4.43;;;30.70;51.80;;;;;;5067671;28;20105;-56
2021/06/08 05:31:18;;;;;;;4.70;4.05;;;30.00;52.60;;;;;;5060623;28;20048;-54
2021/06/08 05:33:44;;;;;;;4.40;4.00;;;29.30;53.40;;;;;;5067462;28;20064;-56
2021/06/08 05:36:09;;;;;;;4.28;3.88;;;28.60;54.20;;;;;;5071368;28;20052;-52
2021/06/08 05:38:37;;;;;;;5.05;4.50;;;28.20;55.10;;;;;;5071866;28;20033;-56
2021/06/08 05:41:08;;;;;;;4.95;4.45;;;27.70;55.80;;;;;;5064846;28;20021;-55
2021/06/08 05:43:34;;;;;;;5.85;4.30;;;27.20;56.50;;;;;;5070014;28;20033;-56
2021/06/08 05:46:01;;;;;;;5.53;4.78;;;26.80;57.10;;;;;;5062653;28;20345;-53
2021/06/08 05:48:27;;;;;;;5.03;4.32;;;26.50;57.60;;;;;;5067046;28;20048;-53
2021/06/08 05:51:09;;;;;;;;;;;26.20;58.30;;;;;;5039440;28;20469;-56
2021/06/08 05:53:39;;;;;;;4.68;4.18;;;25.80;58.70;;;;;;5067562;28;19913;-63
2021/06/08 05:56:06;;;;;;;5.05;4.47;;;25.50;59.40;;;;;;5070249;28;20025;-58
2021/06/08 05:58:33;;;;;;;5.13;4.63;;;25.20;60.20;;;;;;5070608;28;20388;-62
2021/06/08 06:01:00;;;;;;;4.95;4.45;;;25.00;60.80;;;;;;5072493;28;20107;-62
2021/06/08 06:03:28;;;;;;;5.00;4.50;;;24.90;61.50;;;;;;5068053;28;20472;-63
2021/06/08 06:05:55;;;;;;;4.53;4.13;;;24.80;61.90;;;;;;5065260;28;20050;-63
2021/06/08 06:08:21;;;;;;;5.13;4.43;;;24.70;62.50;;;;;;5065620;28;20033;-62
2021/06/08 06:10:47;;;;;;;5.53;4.22;;;24.60;62.90;;;;;;5070793;28;20171;-60
2021/06/08 06:13:25;;;;;;;6.07;4.65;;;24.50;63.20;;;;;;5068825;28;20119;-63
2021/06/08 06:15:52;;;;;;;5.25;4.75;;;24.40;63.50;;;;;;5070001;28;20073;-63
2021/06/08 06:18:20;;;;;;;5.82;4.80;;;24.40;64.00;;;;;;5065681;28;20024;-62
2021/06/08 06:20:47;;;;;;;5.60;4.95;;;24.30;64.30;;;;;;5066802;28;20039;-61
2021/06/08 06:23:21;;;;;;;6.90;5.28;;;24.30;64.70;;;;;;5067898;28;20024;-62
2021/06/08 06:25:49;;;;;;;10.00;4.85;;;24.20;65.10;;;;;;5063653;28;20047;-63
2021/06/08 06:28:15;;;;;;;5.53;5.03;;;24.20;65.40;;;;;;5068539;28;20061;-62
2021/06/08 06:30:42;;;;;;;6.88;5.13;;;24.20;65.70;;;;;;5065060;28;20032;-61
2021/06/08 06:33:08;;;;;;;6.30;5.47;;;24.30;65.60;;;;;;5064327;28;20124;-61
2021/06/08 06:35:34;;;;;;;6.95;5.88;;;24.40;65.60;;;;;;5062294;28;20111;-61
2021/06/08 06:38:02;;;;;;;9.63;5.15;;;24.40;65.80;;;;;;5065745;28;20028;-61
2021/06/08 06:40:30;;;;;;;5.90;5.20;;;24.40;66.00;;;;;;5073076;28;20040;-62
2021/06/08 06:42:59;;;;;;;6.25;4.93;;;24.40;66.00;;;;;;5070487;28;20032;-62
2021/06/08 06:45:25;;;;;;;4.78;4.38;;;24.40;65.80;;;;;;5067774;28;20037;-62
2021/06/08 06:47:51;;;;;;;5.72;5.15;;;24.40;65.80;;;;;;5069938;28;20020;-60
2021/06/08 06:50:18;;;;;;;5.25;4.68;;;24.30;65.80;;;;;;5061982;28;20025;-62
2021/06/08 06:52:55;;;;;;;5.13;4.70;;;24.30;66.00;;;;;;5062604;28;20120;-62
2021/06/08 06:55:21;;;;;;;5.30;4.80;;;24.30;65.90;;;;;;5061145;28;20081;-63
2021/06/08 06:57:47;;;;;;;5.30;4.80;;;24.20;66.10;;;;;;5059768;28;20111;-62
2021/06/08 07:00:15;;;;;;;5.78;5.18;;;24.20;66.30;;;;;;5057184;28;20024;-62
2021/06/08 07:02:43;;;;;;;5.22;4.72;;;24.20;66.70;;;;;;5055973;28;20119;-61
2021/06/08 07:05:13;;;;;;;5.22;4.72;;;24.10;66.70;;;;;;5054669;28;20029;-62
2021/06/08 07:07:39;;;;;;;5.32;4.82;;;24.10;66.70;;;;;;5061556;28;20024;-62
2021/06/08 07:10:08;;;;;;;5.40;4.90;;;24.10;67.00;;;;;;5060646;28;20025;-62
2021/06/08 07:12:35;;;;;;;5.40;4.90;;;24.10;67.20;;;;;;5058388;28;20074;-62
2021/06/08 07:15:01;;;;;;;6.68;4.70;;;24.10;67.50;;;;;;5060101;28;20473;-63
2021/06/08 07:17:27;;;;;;;5.88;4.95;;;24.10;67.50;;;;;;5060411;28;20116;-63
2021/06/08 07:19:56;;;;;;;5.57;4.68;;;24.10;67.70;;;;;;5059977;28;20100;-63
2021/06/08 07:22:22;;;;;;;5.72;5.13;;;24.10;67.70;;;;;;5056125;28;20032;-63
2021/06/08 07:24:48;;;;;;;5.15;4.65;;;24.10;67.70;;;;;;5056452;28;20020;-62
2021/06/08 07:27:14;;;;;;;5.72;4.72;;;24.10;67.70;;;;;;5050355;28;20464;-63
2021/06/08 07:29:41;;;;;;;5.32;4.70;;;24.10;67.80;;;;;;5056200;28;20048;-63
2021/06/08 07:32:17;;;;;;;5.15;4.53;;;24.10;67.60;;;;;;5052164;28;20045;-62
2021/06/08 07:34:59;;;;;;;5.10;4.60;;;24.10;67.70;;;;;;5057571;28;20029;-63
2021/06/08 07:37:26;;;;;;;5.18;4.68;;;24.10;67.60;;;;;;5061342;28;20471;-63
2021/06/08 07:40:08;;;;;;;5.60;4.78;;;24.10;67.70;;;;;;5052765;28;20033;-62
2021/06/08 07:42:43;;;;;;;5.00;4.45;;;24.00;67.80;;;;;;5053033;28;20024;-62
2021/06/08 07:45:11;;;;;;;5.18;4.68;;;24.10;67.90;;;;;;5054851;28;20052;-63
2021/06/08 07:47:56;;;;;;;4.80;4.30;;;24.10;68.00;;;;;;5054511;28;20090;-63
2021/06/08 07:50:29;;;;;;;5.30;4.80;;;24.10;67.90;;;;;;5050885;28;20052;-63
2021/06/08 07:52:55;;;;;;;5.60;5.10;;;24.10;68.10;;;;;;5052472;28;20036;-63
2021/06/08 07:55:21;;;;;;;5.88;4.90;;;24.10;68.10;;;;;;5054927;28;20110;-64
2021/06/08 07:57:47;;;;;;;6.05;4.70;;;24.10;68.10;;;;;;5052734;28;20397;-63
2021/06/08 08:00:14;;;;;;;5.32;4.80;;;24.10;68.20;;;;;;5045894;28;20057;-62
2021/06/08 08:02:40;;;;;;;5.68;5.18;;;24.10;68.40;;;;;;5051640;28;20052;-62
2021/06/08 08:05:11;;;;;;;5.20;4.70;;;24.20;68.90;;;;;;5052482;28;20424;-63
2021/06/08 08:07:38;;;;;;;6.50;4.93;;;24.20;68.60;;;;;;5056163;28;20036;-63
2021/06/08 08:10:05;;;;;;;5.35;4.85;;;24.30;68.40;;;;;;5058420;28;20032;-63
2021/06/08 08:12:39;;;;;;;6.72;5.18;;;24.30;68.80;;;;;;5047470;28;20447;-63
2021/06/08 08:15:08;;;;;;;4.93;4.43;;;24.30;68.50;;;;;;5051753;28;20175;-63
2021/06/08 08:17:34;;;;;;;5.05;4.60;;;24.30;68.30;;;;;;5048441;28;20058;-63
2021/06/08 08:20:01;;;;;;;5.75;4.85;;;24.40;67.90;;;;;;5053453;28;20040;-63
2021/06/08 08:22:27;;;;;;;4.95;4.50;;;24.40;68.10;;;;;;5052995;28;20040;-63
2021/06/08 08:24:53;;;;;;;5.22;4.47;;;24.40;68.20;;;;;;5055907;28;20029;-63
2021/06/08 08:27:18;;;;;;;5.20;4.70;;;24.50;67.80;;;;;;5051147;28;20039;-61
2021/06/08 08:29:47;;;;;;;5.53;4.65;;;24.50;67.60;;;;;;5063117;28;20557;-62
2021/06/08 08:32:14;;;;;;;5.38;4.60;;;24.50;67.30;;;;;;5049942;28;20056;-62
2021/06/08 08:34:42;;;;;;;5.03;4.53;;;24.50;67.30;;;;;;5056939;28;20040;-62
2021/06/08 08:37:08;;;;;;;4.88;4.38;;;24.40;67.00;;;;;;5055293;28;20079;-63
2021/06/08 08:39:33;;;;;;;4.90;4.45;;;24.40;67.20;;;;;;5057560;28;20121;-64
2021/06/08 08:41:59;;;;;;;4.90;4.30;;;24.30;67.10;;;;;;5055250;28;20125;-63
2021/06/08 08:44:26;;;;;;;4.57;4.18;;;24.30;67.20;;;;;;5049213;28;20033;-62
2021/06/08 08:46:57;;;;;;;4.22;3.83;;;24.30;67.20;;;;;;5052747;28;20077;-62
2021/06/08 08:49:25;;;;;;;5.05;4.53;;;24.30;67.10;;;;;;5051460;28;20044;-62
2021/06/08 08:51:53;;;;;;;4.47;4.07;;;24.30;67.10;;;;;;5053999;28;20032;-62
2021/06/08 08:54:21;;;;;;;4.00;3.60;;;24.30;67.00;;;;;;5058767;28;20368;-62
2021/06/08 08:56:48;;;;;;;4.28;3.88;;;24.20;67.00;;;;;;5053536;28;20078;-61
2021/06/08 08:59:16;;;;;;;4.60;4.20;;;24.30;66.90;;;;;;5048533;28;20105;-61
2021/06/08 09:01:46;;;;;;;4.13;3.72;;;24.30;67.10;;;;;;5058968;28;20392;-62
2021/06/08 09:04:14;;;;;;;4.05;3.65;;;24.30;66.90;;;;;;5055254;28;20043;-61
2021/06/08 09:06:40;;;;;;;3.92;3.40;;;24.30;66.50;;;;;;5057996;28;20132;-61
2021/06/08 09:09:08;;;;;;;4.65;3.22;;;24.40;66.10;;;;;;5057783;28;20040;-62
2021/06/08 09:11:38;;;;;;;4.32;3.63;;;24.50;66.10;;;;;;5057602;28;20028;-62
2021/06/08 09:14:04;;;;;;;3.70;3.40;;;24.50;65.50;;;;;;5056887;28;20024;-61
2021/06/08 09:16:31;;;;;;;4.68;3.63;;;24.60;65.50;;;;;;5056027;28;20032;-62
2021/06/08 09:19:00;;;;;;;3.58;3.28;;;24.60;65.20;;;;;;5056739;28;20073;-62
2021/06/08 09:21:28;;;;;;;3.83;3.50;;;24.60;64.80;;;;;;5055545;28;20044;-61
2021/06/08 09:23:54;;;;;;;3.85;3.40;;;24.60;64.60;;;;;;5051263;28;20051;-62
2021/06/08 09:26:20;;;;;;;3.55;3.25;;;24.70;64.50;;;;;;5059232;28;20745;-62
2021/06/08 09:28:47;;;;;;;3.40;3.10;;;24.60;64.30;;;;;;5055608;28;20675;-62
2021/06/08 09:31:21;;;;;;;4.38;3.38;;;24.60;64.20;;;;;;5054766;28;20044;-61
2021/06/08 09:33:55;;;;;;;3.65;3.20;;;24.50;64.20;;;;;;5050559;28;20444;-60
2021/06/08 09:36:23;;;;;;;3.85;3.55;;;24.50;64.50;;;;;;5055930;28;20029;-61
2021/06/08 09:39:00;;;;;;;3.72;3.30;;;24.40;65.00;;;;;;5056063;28;20029;-61
2021/06/08 09:41:49;;;;;;;3.63;3.33;;;24.30;64.30;;;;;;5058311;28;20036;-60
2021/06/08 09:44:19;;;;;;;4.78;3.00;;;24.20;64.40;;;;;;5056388;28;20039;-60
2021/06/08 09:46:50;;;;;;;3.80;3.40;;;24.20;64.80;;;;;;5056485;28;20043;-60
2021/06/08 09:49:19;;;;;;;3.40;3.10;;;24.10;65.00;;;;;;5058801;28;20105;-61
2021/06/08 09:51:50;;;;;;;3.65;3.25;;;24.10;65.10;;;;;;5059021;28;20051;-61
2021/06/08 09:54:29;;;;;;;3.60;3.28;;;24.10;65.30;;;;;;5052215;28;20043;-62
2021/06/08 09:57:15;;;;;;;4.10;3.70;;;24.10;65.90;;;;;;5060212;28;20051;-62
2021/06/08 10:00:19;;;;;;;3.67;3.38;;;24.10;66.20;;;;;;5060352;28;20041;-62
2021/06/08 10:02:48;;;;;;;3.83;3.53;;;24.00;66.30;;;;;;4994783;28;20084;-62
2021/06/08 10:05:30;;;;;;;4.07;3.58;;;24.00;66.60;;;;;;4994831;28;20092;-62
2021/06/08 10:07:58;;;;;;;4.20;3.80;;;24.00;66.60;;;;;;5031404;28;20045;-62
2021/06/08 10:10:26;;;;;;;4.40;3.70;;;24.00;67.00;;;;;;5057188;28;20043;-62
2021/06/08 10:13:03;;;;;;;4.07;3.67;;;24.00;67.30;;;;;;5061024;28;20078;-62
2021/06/08 10:15:34;;;;;;;4.72;3.80;;;23.90;67.20;;;;;;5059826;28;20388;-61
2021/06/08 10:18:09;;;;;;;4.03;3.63;;;23.80;67.20;;;;;;5059333;28;20024;-62
2021/06/08 10:20:45;;;;;;;4.32;3.92;;;23.80;68.20;;;;;;5064522;28;20029;-61
2021/06/08 10:23:29;;;;;;;4.90;3.63;;;23.70;67.70;;;;;;5060225;28;20357;-61
2021/06/08 10:25:57;;;;;;;4.05;3.65;;;23.60;67.80;;;;;;5062286;28;20086;-61
2021/06/08 10:28:26;;;;;;;5.03;4.07;;;23.60;68.50;;;;;;5068134;28;20044;-61
2021/06/08 10:30:53;;;;;;;3.97;3.65;;;23.50;68.60;;;;;;5069153;28;20047;-61
2021/06/08 10:33:22;;;;;;;4.25;3.85;;;23.50;68.90;;;;;;5069181;28;20027;-62
2021/06/08 10:35:48;;;;;;;4.32;3.72;;;23.50;69.20;;;;;;5067115;28;20086;-62
2021/06/08 10:38:15;;;;;;;4.57;3.65;;;23.40;69.30;;;;;;5064711;28;20502;-61
2021/06/08 10:40:43;;;;;;;5.85;4.20;;;23.40;69.20;;;;;;5064642;28;20051;-61
2021/06/08 10:43:29;;;;;;;3.85;3.42;;;23.40;69.40;;;;;;5062629;28;20020;-61
2021/06/08 10:45:56;;;;;;;3.88;3.47;;;23.30;68.90;;;;;;5064148;28;20036;-62
2021/06/08 10:48:41;;;;;;;4.80;3.30;;;23.30;68.70;;;;;;5061854;28;20079;-62
2021/06/08 10:51:18;;;;;;;4.45;2.83;;;23.20;68.10;;;;;;5054339;28;20476;-61
2021/06/08 10:53:56;;;;;;;4.60;3.20;;;23.10;67.70;;;;;;5063977;28;20483;-62
2021/06/08 10:56:34;;;;;;;2.97;2.67;;;23.00;67.80;;;;;;5064370;28;20037;-61
2021/06/08 10:59:01;;;;;;;5.90;3.22;;;22.80;68.50;;;;;;5060940;28;20079;-61
2021/06/08 11:01:42;;;;;;;3.55;2.65;;;22.70;68.40;;;;;;5059951;28;20439;-61
2021/06/08 11:04:08;;;;;;;3.55;2.83;;;22.60;67.90;;;;;;5055217;28;20052;-64
2021/06/08 11:06:37;;;;;;;3.88;3.00;;;22.40;68.40;;;;;;5057504;28;20028;-65
2021/06/08 11:09:16;;;;;;;4.53;3.05;;;22.30;69.70;;;;;;5053125;28;20053;-65
2021/06/08 11:11:57;;;;;;;3.60;3.30;;;22.10;70.00;;;;;;5055410;28;20051;-64
2021/06/08 11:15:02;;;;;;;3.80;3.50;;;21.90;70.90;;;;;;5057791;28;20024;-64
2021/06/08 11:17:34;;;;;;;4.43;3.20;;;21.80;72.10;;;;;;5057080;28;20496;-63
2021/06/08 11:20:02;;;;;;;6.10;4.32;;;21.80;72.80;;;;;;5058556;28;20056;-63
2021/06/08 11:22:34;;;;;;;5.30;4.43;;;21.70;73.60;;;;;;5055252;28;20055;-64
2021/06/08 11:25:02;;;;;;;4.72;3.58;;;21.60;74.20;;;;;;5052431;28;20033;-64
2021/06/08 11:27:57;;;;;;;4.82;3.95;;;21.60;74.30;;;;;;5050283;28;20110;-63
2021/06/08 11:30:29;;;;;;;5.60;4.60;;;21.60;74.50;;;;;;5053302;28;20025;-65
2021/06/08 11:32:55;;;;;;;4.50;4.05;;;21.50;75.20;;;;;;5056161;28;20032;-65
2021/06/08 11:35:41;;;;;;;5.20;4.63;;;21.50;75.40;;;;;;5062544;28;20062;-66
2021/06/08 11:38:25;;;;;;;4.80;4.28;;;21.50;76.10;;;;;;5062896;28;20655;-65
2021/06/08 11:40:58;;;;;;;4.55;3.58;;;21.50;76.40;;;;;;5061004;28;20024;-66
2021/06/08 11:43:23;;;;;;;5.18;3.65;;;21.60;76.20;;;;;;5061216;28;20027;-66
2021/06/08 11:46:12;;;;;;;4.78;3.25;;;21.60;75.90;;;;;;5057479;28;20033;-66
2021/06/08 11:48:41;;;;;;;3.33;3.03;;;21.60;75.40;;;;;;5054156;28;20044;-66
2021/06/08 11:51:18;;;;;;;2.95;2.40;;;21.70;74.70;;;;;;5060227;28;20141;-66
2021/06/08 11:54:01;;;;;;;3.00;2.72;;;21.70;73.90;;;;;;5057851;28;20032;-64
2021/06/08 11:56:56;;;;;;;5.45;2.50;;;21.80;73.40;;;;;;5056092;28;20029;-64
2021/06/08 11:59:30;;;;;;;2.60;2.35;;;21.80;73.00;;;;;;5055827;28;20133;-64
2021/06/08 12:02:02;;;;;;;2.70;2.50;;;21.90;73.60;;;;;;5061415;28;20036;-65
2021/06/08 12:04:30;;;;;;;2.80;2.47;;;21.90;73.10;;;;;;5057202;28;20353;-65
2021/06/08 12:07:02;;;;;;;2.42;2.22;;;21.90;72.40;;;;;;5061416;28;20024;-66
2021/06/08 12:09:30;;;;;;;2.63;2.42;;;21.90;72.20;;;;;;5058209;28;20040;-65
2021/06/08 12:11:58;;;;;;;2.58;2.38;;;21.90;71.90;;;;;;5055297;28;20033;-65
2021/06/08 12:14:27;;;;;;;3.20;2.70;;;21.90;71.90;;;;;;5060002;28;20028;-65
2021/06/08 12:16:58;;;;;;;4.03;2.58;;;21.80;72.00;;;;;;5052816;28;20499;-65
2021/06/08 12:19:29;;;;;;;2.72;2.53;;;21.80;72.10;;;;;;5054815;28;20120;-65
2021/06/08 12:21:57;;;;;;;4.03;2.55;;;21.70;72.00;;;;;;5054501;28;20016;-65
2021/06/08 12:24:22;;;;;;;3.03;2.55;;;21.70;72.40;;;;;;5052248;28;20032;-65
2021/06/08 12:26:57;;;;;;;2.60;2.40;;;21.70;73.10;;;;;;5052668;28;20056;-65
2021/06/08 12:29:23;;;;;;;2.70;2.50;;;21.60;72.60;;;;;;5056467;28;20118;-65
2021/06/08 12:32:09;;;;;;;2.83;2.47;;;21.60;72.60;;;;;;5057105;28;20040;-65
2021/06/08 12:34:36;;;;;;;4.22;3.00;;;21.60;72.60;;;;;;5058778;28;20047;-65
2021/06/08 12:37:02;;;;;;;2.90;2.70;;;21.60;73.30;;;;;;5059177;28;20047;-65
2021/06/08 12:39:33;;;;;;;2.92;2.67;;;21.60;72.80;;;;;;5056996;28;20031;-66
2021/06/08 12:42:10;;;;;;;2.35;2.15;;;21.60;72.90;;;;;;5056982;28;20035;-65
2021/06/08 12:44:37;;;;;;;3.75;2.85;;;21.60;72.90;;;;;;5056501;28;20040;-65
2021/06/08 12:47:04;;;;;;;2.83;2.60;;;21.60;72.90;;;;;;5053546;28;20032;-65
2021/06/08 12:49:38;;;;;;;3.13;2.90;;;21.60;73.00;;;;;;5058136;28;20942;-65
2021/06/08 12:52:06;;;;;;;3.28;2.97;;;21.60;73.00;;;;;;5055333;28;20814;-65
2021/06/08 12:54:50;;;;;;;2.83;2.60;;;21.60;73.00;;;;;;5058784;28;20033;-65
2021/06/08 12:57:33;;;;;;;2.58;2.38;;;21.70;72.60;;;;;;5053596;28;20374;-65
2021/06/08 13:00:08;;;;;;;2.83;2.63;;;21.70;72.30;;;;;;5057843;28;20040;-65
2021/06/08 13:02:35;;;;;;;2.65;2.42;;;21.70;72.20;;;;;;5055913;28;20527;-65